Time;durP1;ratioP1;P1;durP2;ratioP2;P2;SDS_P1;SDS_P2;PMS_P1;PMS_P2;Temp;Humidity;BMP_temperature;BMP_pressure;BME280_temperature;BME280_humidity;BME280_pressure;Samples;Min_cycle;Max_cycle;Signal;HPM_P1;HPM_P2
2023/02/24 00:02:13;;;;;;;3.47;1.10;;;;;;;;;;4979238;28;20609;-72
2023/02/24 00:04:39;;;;;;;7.93;1.33;;;;;;;;;;4976357;28;20536;-71
2023/02/24 00:07:05;;;;;;;7.93;1.17;;;;;;;;;;4969923;28;22366;-72
2023/02/24 00:09:32;;;;;;;12.90;2.10;;;;;;;;;;4975499;28;20796;-72
2023/02/24 00:11:58;;;;;;;4.83;1.40;;;;;;;;;;4978897;28;20549;-72
2023/02/24 00:14:26;;;;;;;6.40;1.20;;;;;;;;;;4976325;28;20524;-71
2023/02/24 00:16:51;;;;;;;3.87;0.90;;;;;;;;;;4983268;28;20532;-72
2023/02/24 00:19:18;;;;;;;4.53;1.20;;;;;;;;;;4978086;28;20536;-72
2023/02/24 00:21:44;;;;;;;4.47;1.50;;;;;;;;;;4978426;28;20186;-71
2023/02/24 00:24:09;;;;;;;6.43;1.40;;;;;;;;;;4974487;28;20918;-72
2023/02/24 00:26:35;;;;;;;5.63;1.20;;;;;;;;;;4977391;28;20185;-72
2023/02/24 00:29:02;;;;;;;2.60;0.90;;;;;;;;;;4970968;28;20221;-72
2023/02/24 00:31:29;;;;;;;4.43;1.50;;;;;;;;;;4974572;28;20186;-72
2023/02/24 00:33:55;;;;;;;6.60;1.60;;;;;;;;;;4975279;28;20569;-72
2023/02/24 00:36:24;;;;;;;5.40;1.00;;;;;;;;;;4979329;28;20909;-72
2023/02/24 00:38:54;;;;;;;6.90;1.10;;;;;;;;;;4973976;28;20457;-72
2023/02/24 00:41:21;;;;;;;4.07;1.20;;;;;;;;;;4978243;28;20472;-72
2023/02/24 00:43:47;;;;;;;5.00;1.10;;;;;;;;;;4978978;28;20430;-72
2023/02/24 00:46:16;;;;;;;4.87;1.23;;;;;;;;;;4974328;28;20433;-72
2023/02/24 00:48:45;;;;;;;2.97;1.00;;;;;;;;;;4974649;28;20456;-72
2023/02/24 00:51:12;;;;;;;3.70;0.90;;;;;;;;;;4979072;28;20445;-72
2023/02/24 00:53:38;;;;;;;6.27;1.40;;;;;;;;;;4978840;28;20914;-72
2023/02/24 00:56:06;;;;;;;8.67;1.30;;;;;;;;;;4978729;28;20416;-72
2023/02/24 00:58:32;;;;;;;5.47;1.10;;;;;;;;;;4980757;28;20496;-72
2023/02/24 01:00:57;;;;;;;3.87;1.07;;;;;;;;;;4979891;28;20468;-72
2023/02/24 01:03:24;;;;;;;6.30;1.03;;;;;;;;;;4982639;28;20432;-72
2023/02/24 01:05:50;;;;;;;11.53;3.40;;;;;;;;;;4978849;28;20190;-72
2023/02/24 01:08:20;;;;;;;6.30;1.43;;;;;;;;;;4981726;28;20846;-73
2023/02/24 01:12:00;;;;;;;3.90;1.30;;;;;;;;;;4981350;28;20297;-72
2023/02/24 01:13:38;;;;;;;7.27;1.40;;;;;;;;;;4979079;28;20436;-72
2023/02/24 01:16:03;;;;;;;5.00;1.00;;;;;;;;;;4977442;28;20451;-72
2023/02/24 01:18:29;;;;;;;4.67;1.43;;;;;;;;;;4976953;28;20194;-72
2023/02/24 01:20:57;;;;;;;6.73;1.37;;;;;;;;;;4979758;28;20189;-72
2023/02/24 01:23:23;;;;;;;4.37;1.00;;;;;;;;;;4973627;28;20829;-72
2023/02/24 01:25:48;;;;;;;5.00;1.40;;;;;;;;;;4979352;28;20445;-72
2023/02/24 01:28:14;;;;;;;5.10;1.27;;;;;;;;;;4977894;28;20210;-72
2023/02/24 01:30:41;;;;;;;4.77;1.73;;;;;;;;;;4987697;28;20203;-72
2023/02/24 01:33:07;;;;;;;5.97;1.60;;;;;;;;;;4981692;28;20178;-72
2023/02/24 01:35:34;;;;;;;6.40;1.90;;;;;;;;;;4979404;28;20448;-72
2023/02/24 01:38:00;;;;;;;3.73;1.30;;;;;;;;;;4978942;28;20225;-72
2023/02/24 01:40:26;;;;;;;6.70;1.50;;;;;;;;;;4978939;28;20961;-72
2023/02/24 01:42:51;;;;;;;5.17;1.40;;;;;;;;;;4980856;28;20583;-72
2023/02/24 01:45:20;;;;;;;3.60;1.33;;;;;;;;;;4978085;28;20643;-72
2023/02/24 01:47:46;;;;;;;5.10;1.20;;;;;;;;;;4986661;28;20623;-72
2023/02/24 01:50:14;;;;;;;7.27;1.30;;;;;;;;;;4976864;28;20556;-72
2023/02/24 01:52:41;;;;;;;5.30;1.30;;;;;;;;;;4977035;28;20444;-72
2023/02/24 01:55:08;;;;;;;5.60;1.20;;;;;;;;;;4972718;28;20783;-72
2023/02/24 01:57:35;;;;;;;6.30;1.40;;;;;;;;;;4978793;28;20525;-72
2023/02/24 02:00:18;;;;;;;4.17;1.30;;;;;;;;;;4973153;28;21031;-72
2023/02/24 02:02:45;;;;;;;6.77;1.50;;;;;;;;;;4979614;28;20475;-72
2023/02/24 02:05:10;;;;;;;4.27;1.20;;;;;;;;;;4977738;28;20437;-72
2023/02/24 02:07:37;;;;;;;4.50;2.07;;;;;;;;;;4971540;28;20457;-72
2023/02/24 02:10:05;;;;;;;7.87;1.33;;;;;;;;;;4976448;28;20244;-72
2023/02/24 02:12:32;;;;;;;8.73;1.60;;;;;;;;;;4982379;28;20442;-72
2023/02/24 02:14:58;;;;;;;6.73;1.30;;;;;;;;;;4981199;28;20441;-72
2023/02/24 02:17:28;;;;;;;3.53;1.20;;;;;;;;;;4973311;28;20949;-72
2023/02/24 02:19:55;;;;;;;6.43;1.20;;;;;;;;;;4978147;28;20969;-72
2023/02/24 02:22:25;;;;;;;7.13;1.30;;;;;;;;;;4994007;28;20448;-72
2023/02/24 02:25:02;;;;;;;8.13;1.20;;;;;;;;;;4992608;28;20451;-72
2023/02/24 02:27:33;;;;;;;6.40;1.90;;;;;;;;;;4972769;28;20570;-72
2023/02/24 02:30:02;;;;;;;7.87;1.70;;;;;;;;;;4975032;28;20500;-72
2023/02/24 02:32:30;;;;;;;5.73;1.23;;;;;;;;;;4977433;28;20452;-72
2023/02/24 02:35:02;;;;;;;9.27;1.77;;;;;;;;;;4974821;28;20930;-72
2023/02/24 02:37:33;;;;;;;13.23;2.43;;;;;;;;;;4981279;28;20484;-73
2023/02/24 02:40:14;;;;;;;2.10;1.17;;;;;;;;;;4976494;28;20461;-72
2023/02/24 02:42:46;;;;;;;6.67;1.33;;;;;;;;;;4993313;28;20503;-72
2023/02/24 02:45:14;;;;;;;7.23;1.50;;;;;;;;;;4975660;28;20472;-72
2023/02/24 02:48:14;;;;;;;7.20;1.37;;;;;;;;;;4983915;28;20881;-72
2023/02/24 02:50:44;;;;;;;9.70;1.57;;;;;;;;;;4902668;29;20479;-72
2023/02/24 02:53:23;;;;;;;8.20;1.50;;;;;;;;;;4969830;28;20445;-72
2023/02/24 02:55:58;;;;;;;8.83;2.07;;;;;;;;;;4979993;28;20512;-72
2023/02/24 02:58:27;;;;;;;7.33;1.37;;;;;;;;;;4977246;28;21046;-72
2023/02/24 03:01:01;;;;;;;6.43;1.77;;;;;;;;;;4978675;28;20902;-73
2023/02/24 03:03:29;;;;;;;8.10;1.63;;;;;;;;;;4980298;28;20469;-72
2023/02/24 03:06:15;;;;;;;8.13;1.47;;;;;;;;;;4976085;28;20921;-72
2023/02/24 03:08:43;;;;;;;7.30;1.70;;;;;;;;;;4975589;28;20552;-73
2023/02/24 03:11:09;;;;;;;12.93;1.73;;;;;;;;;;4975219;28;20597;-72
2023/02/24 03:13:38;;;;;;;4.33;1.33;;;;;;;;;;4979924;28;20441;-72
2023/02/24 03:16:05;;;;;;;12.57;1.70;;;;;;;;;;4976924;28;20434;-73
2023/02/24 03:18:32;;;;;;;8.50;1.63;;;;;;;;;;4974532;28;20535;-72
2023/02/24 03:21:16;;;;;;;8.70;1.80;;;;;;;;;;4981700;28;20445;-72
2023/02/24 03:23:51;;;;;;;4.70;1.40;;;;;;;;;;4977919;28;20440;-74
2023/02/24 03:26:20;;;;;;;9.37;1.53;;;;;;;;;;4977029;28;20515;-74
2023/02/24 03:29:04;;;;;;;6.03;1.37;;;;;;;;;;4978208;28;20469;-73
2023/02/24 03:31:42;;;;;;;8.67;1.70;;;;;;;;;;4974755;28;20738;-74
2023/02/24 03:34:23;;;;;;;11.00;1.53;;;;;;;;;;4994272;28;20436;-74
2023/02/24 03:36:48;;;;;;;9.83;1.30;;;;;;;;;;4978050;28;20443;-74
2023/02/24 03:39:16;;;;;;;5.20;1.17;;;;;;;;;;4978793;28;20434;-74
2023/02/24 03:41:48;;;;;;;6.10;1.33;;;;;;;;;;4984267;28;20662;-74
2023/02/24 03:44:14;;;;;;;8.37;1.67;;;;;;;;;;4984727;28;20401;-74
2023/02/24 03:46:41;;;;;;;7.20;1.67;;;;;;;;;;4983000;28;20516;-74
2023/02/24 03:49:11;;;;;;;8.47;1.67;;;;;;;;;;4983687;28;20234;-74
2023/02/24 03:51:36;;;;;;;9.13;1.60;;;;;;;;;;4982490;28;20421;-74
2023/02/24 03:54:20;;;;;;;6.50;1.67;;;;;;;;;;4983536;28;20440;-74
2023/02/24 03:56:56;;;;;;;7.40;1.80;;;;;;;;;;4997558;28;20723;-74
2023/02/24 03:59:40;;;;;;;13.87;3.43;;;;;;;;;;4986206;28;20845;-74
2023/02/24 04:02:16;;;;;;;6.53;1.50;;;;;;;;;;4984348;28;20423;-75
2023/02/24 04:04:48;;;;;;;7.73;1.43;;;;;;;;;;4975374;28;20437;-74
2023/02/24 04:07:17;;;;;;;10.10;1.70;;;;;;;;;;4980493;28;20436;-74
2023/02/24 04:09:52;;;;;;;6.93;1.30;;;;;;;;;;4973939;28;20473;-74
2023/02/24 04:12:18;;;;;;;9.33;2.13;;;;;;;;;;4979348;28;20440;-74
2023/02/24 04:14:46;;;;;;;6.50;1.30;;;;;;;;;;4978471;28;20434;-74
2023/02/24 04:17:18;;;;;;;4.17;1.43;;;;;;;;;;4977720;28;20436;-74
2023/02/24 04:19:46;;;;;;;5.90;1.23;;;;;;;;;;4979801;28;20535;-74
2023/02/24 04:22:12;;;;;;;8.30;1.87;;;;;;;;;;4979625;28;20467;-74
2023/02/24 04:24:38;;;;;;;6.00;1.90;;;;;;;;;;4979942;28;20778;-74
2023/02/24 04:27:05;;;;;;;4.73;1.27;;;;;;;;;;4977904;28;20590;-74
2023/02/24 04:29:35;;;;;;;5.33;1.60;;;;;;;;;;4978990;28;20602;-74
2023/02/24 04:32:03;;;;;;;9.17;1.90;;;;;;;;;;4977761;28;20484;-74
2023/02/24 04:34:31;;;;;;;9.93;2.53;;;;;;;;;;4979375;28;20700;-74
2023/02/24 04:36:58;;;;;;;6.40;1.63;;;;;;;;;;4979060;28;20997;-74
2023/02/24 04:39:23;;;;;;;7.40;1.83;;;;;;;;;;4982304;28;20969;-74
2023/02/24 04:41:49;;;;;;;6.83;1.50;;;;;;;;;;4978713;28;20425;-74
2023/02/24 04:44:24;;;;;;;6.73;1.40;;;;;;;;;;4979570;28;20260;-74
2023/02/24 04:46:49;;;;;;;8.53;1.73;;;;;;;;;;4974376;28;20281;-74
2023/02/24 04:49:15;;;;;;;9.13;1.73;;;;;;;;;;4980005;28;20557;-74
2023/02/24 04:51:41;;;;;;;8.33;2.10;;;;;;;;;;4973601;28;20233;-74
2023/02/24 04:54:17;;;;;;;6.30;1.93;;;;;;;;;;4991959;28;20470;-74
2023/02/24 04:56:46;;;;;;;7.47;2.00;;;;;;;;;;4976640;28;20632;-73
2023/02/24 04:59:12;;;;;;;8.00;1.60;;;;;;;;;;4975999;28;21190;-74
2023/02/24 05:01:38;;;;;;;13.33;1.83;;;;;;;;;;4972072;28;20546;-74
2023/02/24 05:04:05;;;;;;;9.70;1.70;;;;;;;;;;4976487;28;20190;-74
2023/02/24 05:06:30;;;;;;;4.90;1.27;;;;;;;;;;4983271;28;20559;-74
2023/02/24 05:08:56;;;;;;;9.83;1.50;;;;;;;;;;4982068;28;20929;-74
2023/02/24 05:11:21;;;;;;;9.60;2.77;;;;;;;;;;4977119;28;20185;-74
2023/02/24 05:13:46;;;;;;;10.20;1.70;;;;;;;;;;4975626;28;20208;-74
2023/02/24 05:16:13;;;;;;;6.03;1.93;;;;;;;;;;4972415;28;20189;-74
2023/02/24 05:18:39;;;;;;;7.50;2.17;;;;;;;;;;4976070;28;20308;-74
2023/02/24 05:23:57;;;;;;;11.23;2.37;;;;;;;;;;4982405;28;20243;-74
2023/02/24 05:26:25;;;;;;;7.70;2.30;;;;;;;;;;4975124;28;20528;-74
2023/02/24 05:28:51;;;;;;;12.53;2.60;;;;;;;;;;4965125;28;21386;-74
2023/02/24 05:31:24;;;;;;;8.40;3.07;;;;;;;;;;4972707;28;20495;-74
2023/02/24 05:33:53;;;;;;;12.90;3.43;;;;;;;;;;4983454;28;20433;-74
2023/02/24 05:36:19;;;;;;;15.13;3.10;;;;;;;;;;4967195;28;20432;-74
2023/02/24 05:38:45;;;;;;;17.13;3.13;;;;;;;;;;4970466;28;20838;-74
2023/02/24 05:41:15;;;;;;;9.83;2.97;;;;;;;;;;4977517;28;20189;-75
2023/02/24 05:43:51;;;;;;;9.10;2.20;;;;;;;;;;4986803;28;20541;-74
2023/02/24 05:46:16;;;;;;;9.57;2.30;;;;;;;;;;4969698;28;20441;-76
2023/02/24 05:48:42;;;;;;;10.60;2.13;;;;;;;;;;4972725;28;20459;-75
2023/02/24 05:51:11;;;;;;;11.30;2.40;;;;;;;;;;4965753;28;20252;-75
2023/02/24 05:53:40;;;;;;;9.57;2.43;;;;;;;;;;4980583;28;20436;-74
2023/02/24 05:56:05;;;;;;;9.57;2.43;;;;;;;;;;4980796;28;20426;-74
2023/02/24 05:58:31;;;;;;;8.60;2.40;;;;;;;;;;4981380;28;20445;-74
2023/02/24 06:00:58;;;;;;;12.43;2.70;;;;;;;;;;4984602;28;20640;-74
2023/02/24 06:03:29;;;;;;;17.63;4.10;;;;;;;;;;4998530;28;20253;-74
2023/02/24 06:05:58;;;;;;;10.33;3.07;;;;;;;;;;4982113;28;20793;-74
2023/02/24 06:08:23;;;;;;;13.03;2.70;;;;;;;;;;4982064;28;20464;-74
2023/02/24 06:10:50;;;;;;;7.37;1.97;;;;;;;;;;4983568;28;20469;-74
2023/02/24 06:13:15;;;;;;;6.27;2.27;;;;;;;;;;4983421;28;20205;-74
2023/02/24 06:15:48;;;;;;;10.33;2.97;;;;;;;;;;4982276;28;20463;-74
2023/02/24 06:18:16;;;;;;;11.20;2.50;;;;;;;;;;4982303;28;20271;-74
2023/02/24 06:20:43;;;;;;;9.60;2.80;;;;;;;;;;4984623;28;20826;-75
2023/02/24 06:23:08;;;;;;;7.00;2.27;;;;;;;;;;5000197;28;20454;-74
2023/02/24 06:25:34;;;;;;;15.60;2.60;;;;;;;;;;4983485;28;20456;-74
2023/02/24 06:28:00;;;;;;;12.43;2.53;;;;;;;;;;4982976;28;20595;-74
2023/02/24 06:30:26;;;;;;;10.80;2.57;;;;;;;;;;4985741;28;20728;-74
2023/02/24 06:32:52;;;;;;;8.80;2.70;;;;;;;;;;4986422;28;20428;-74
2023/02/24 06:35:18;;;;;;;11.73;2.80;;;;;;;;;;4979674;28;20203;-74
2023/02/24 06:37:43;;;;;;;17.13;2.63;;;;;;;;;;4982029;28;20612;-74
2023/02/24 06:40:16;;;;;;;11.43;2.80;;;;;;;;;;4983792;28;20230;-73
2023/02/24 06:42:48;;;;;;;12.90;3.60;;;;;;;;;;4980937;28;20217;-74
2023/02/24 06:45:14;;;;;;;9.40;2.80;;;;;;;;;;4983746;28;20950;-74
2023/02/24 06:47:41;;;;;;;12.30;3.10;;;;;;;;;;4981834;28;20455;-74
2023/02/24 06:50:08;;;;;;;9.83;3.27;;;;;;;;;;4983295;28;20483;-73
2023/02/24 06:52:35;;;;;;;16.10;3.73;;;;;;;;;;4985444;28;20432;-74
2023/02/24 06:55:03;;;;;;;13.20;3.20;;;;;;;;;;4984386;28;20417;-74
2023/02/24 06:57:31;;;;;;;7.77;3.27;;;;;;;;;;4973547;28;20455;-73
2023/02/24 06:59:56;;;;;;;11.83;3.10;;;;;;;;;;4983237;28;20479;-74
2023/02/24 07:02:25;;;;;;;11.37;3.47;;;;;;;;;;4985050;28;20425;-74
2023/02/24 07:04:54;;;;;;;9.50;2.73;;;;;;;;;;4984044;28;20190;-73
2023/02/24 07:07:19;;;;;;;10.80;3.00;;;;;;;;;;4983469;28;20507;-74
2023/02/24 07:09:44;;;;;;;8.03;2.90;;;;;;;;;;4982472;28;21052;-74
2023/02/24 07:12:11;;;;;;;12.77;3.20;;;;;;;;;;4977493;28;20237;-74
2023/02/24 07:14:37;;;;;;;10.53;3.27;;;;;;;;;;4984066;28;20169;-73
2023/02/24 07:17:02;;;;;;;8.00;2.70;;;;;;;;;;4983627;28;20821;-74
2023/02/24 07:19:29;;;;;;;9.30;3.60;;;;;;;;;;4980797;28;20206;-74
2023/02/24 07:22:01;;;;;;;12.27;3.43;;;;;;;;;;4982329;28;20189;-74
2023/02/24 07:24:39;;;;;;;13.20;4.10;;;;;;;;;;4981218;28;20425;-74
2023/02/24 07:27:05;;;;;;;10.30;3.23;;;;;;;;;;4981819;28;20432;-74
2023/02/24 07:29:31;;;;;;;9.40;3.20;;;;;;;;;;4983093;28;20469;-74
2023/02/24 07:32:01;;;;;;;9.43;2.83;;;;;;;;;;4985138;28;20683;-74
2023/02/24 07:34:27;;;;;;;8.30;2.70;;;;;;;;;;4981053;28;20437;-74
2023/02/24 07:36:53;;;;;;;10.20;3.30;;;;;;;;;;4979491;28;20429;-74
2023/02/24 07:39:19;;;;;;;11.17;3.60;;;;;;;;;;4981649;28;20279;-74
2023/02/24 07:41:48;;;;;;;9.37;4.60;;;;;;;;;;4969136;28;20934;-74
2023/02/24 07:44:14;;;;;;;9.80;3.20;;;;;;;;;;4983650;28;20183;-73
2023/02/24 07:46:42;;;;;;;13.07;3.90;;;;;;;;;;4983454;28;20409;-73
2023/02/24 07:49:10;;;;;;;7.90;3.20;;;;;;;;;;4981306;28;20849;-74
2023/02/24 07:51:36;;;;;;;8.97;3.17;;;;;;;;;;4995714;28;21022;-73
2023/02/24 07:54:02;;;;;;;12.13;3.80;;;;;;;;;;4983232;28;20421;-73
2023/02/24 07:56:28;;;;;;;8.90;3.20;;;;;;;;;;4982659;28;20212;-74
2023/02/24 07:58:58;;;;;;;11.40;3.30;;;;;;;;;;4982623;28;20464;-73
2023/02/24 08:01:27;;;;;;;10.57;3.10;;;;;;;;;;4991524;28;20468;-73
2023/02/24 08:04:06;;;;;;;9.93;3.30;;;;;;;;;;4983458;28;20661;-73
2023/02/24 08:06:38;;;;;;;17.90;5.07;;;;;;;;;;4980906;28;20519;-74
2023/02/24 08:09:16;;;;;;;11.53;4.00;;;;;;;;;;4967594;28;20461;-73
2023/02/24 08:11:51;;;;;;;16.30;4.70;;;;;;;;;;4970399;28;20424;-73
2023/02/24 08:14:18;;;;;;;9.53;3.93;;;;;;;;;;4978495;28;20432;-74
2023/02/24 08:16:44;;;;;;;12.53;5.33;;;;;;;;;;4978189;28;20655;-73
2023/02/24 08:19:12;;;;;;;15.13;4.70;;;;;;;;;;4977414;28;20452;-73
2023/02/24 08:21:40;;;;;;;9.40;4.23;;;;;;;;;;4980362;28;20437;-73
2023/02/24 08:24:05;;;;;;;11.13;3.93;;;;;;;;;;4979748;28;20429;-74
2023/02/24 08:26:31;;;;;;;9.30;3.80;;;;;;;;;;4976913;28;20425;-74
2023/02/24 08:28:56;;;;;;;11.87;4.47;;;;;;;;;;4979239;28;20927;-73
2023/02/24 08:31:22;;;;;;;10.47;4.80;;;;;;;;;;4974454;28;20209;-73
2023/02/24 08:33:48;;;;;;;9.07;4.07;;;;;;;;;;4975369;28;20183;-73
2023/02/24 08:36:14;;;;;;;8.07;4.10;;;;;;;;;;4979778;28;20192;-73
2023/02/24 08:38:40;;;;;;;12.47;4.10;;;;;;;;;;4978000;28;20202;-73
2023/02/24 08:41:10;;;;;;;8.93;4.43;;;;;;;;;;4980653;28;20437;-73
2023/02/24 08:43:39;;;;;;;11.50;4.83;;;;;;;;;;4971500;28;20436;-73
2023/02/24 08:46:18;;;;;;;10.80;4.40;;;;;;;;;;4973138;28;20437;-73
2023/02/24 08:48:54;;;;;;;9.53;4.73;;;;;;;;;;4978283;28;20457;-73
2023/02/24 08:51:21;;;;;;;10.30;4.50;;;;;;;;;;4979295;28;20505;-73
2023/02/24 08:53:47;;;;;;;11.40;4.40;;;;;;;;;;4979793;28;20432;-73
2023/02/24 08:56:22;;;;;;;9.40;4.17;;;;;;;;;;4975211;28;20429;-73
2023/02/24 08:58:48;;;;;;;10.60;3.97;;;;;;;;;;4974968;28;20460;-73
2023/02/24 09:01:17;;;;;;;10.87;4.50;;;;;;;;;;4975720;28;20812;-73
2023/02/24 09:03:46;;;;;;;13.27;3.80;;;;;;;;;;4980017;28;20190;-73
2023/02/24 09:06:15;;;;;;;8.80;3.23;;;;;;;;;;4977227;28;20456;-73
2023/02/24 09:08:40;;;;;;;8.57;3.53;;;;;;;;;;4967434;28;20464;-73
2023/02/24 09:11:07;;;;;;;10.00;4.17;;;;;;;;;;4977544;28;21032;-73
2023/02/24 09:13:36;;;;;;;9.63;2.70;;;;;;;;;;4971447;28;20232;-73
2023/02/24 09:16:03;;;;;;;7.50;2.97;;;;;;;;;;4974742;28;20522;-73
2023/02/24 09:18:37;;;;;;;7.27;2.90;;;;;;;;;;4971010;28;20822;-73
2023/02/24 09:21:43;;;;;;;12.10;3.10;;;;;;;;;;4977497;28;20523;-74
2023/02/24 09:24:05;;;;;;;7.47;2.70;;;;;;;;;;4977818;28;20438;-73
2023/02/24 09:26:41;;;;;;;3.87;2.10;;;;;;;;;;4975012;28;20801;-73
2023/02/24 09:29:32;;;;;;;6.37;2.83;;;;;;;;;;4971597;28;20572;-73
2023/02/24 09:32:03;;;;;;;4.60;2.10;;;;;;;;;;4972369;28;20451;-73
2023/02/24 09:34:29;;;;;;;10.03;2.87;;;;;;;;;;4980366;28;20492;-73
2023/02/24 09:37:01;;;;;;;7.57;2.70;;;;;;;;;;4977172;28;20511;-73
2023/02/24 09:39:27;;;;;;;5.30;2.37;;;;;;;;;;4980456;28;20441;-73
2023/02/24 09:41:55;;;;;;;7.40;2.07;;;;;;;;;;4979990;28;20444;-73
2023/02/24 09:44:32;;;;;;;3.53;1.90;;;;;;;;;;4977722;28;20947;-73
2023/02/24 09:47:07;;;;;;;6.57;2.40;;;;;;;;;;4981106;28;20802;-73
2023/02/24 09:49:38;;;;;;;4.67;1.77;;;;;;;;;;4978750;28;20842;-74
2023/02/24 09:52:16;;;;;;;7.47;2.80;;;;;;;;;;4978553;28;20508;-74
2023/02/24 09:54:52;;;;;;;5.00;2.17;;;;;;;;;;4994600;28;20436;-73
2023/02/24 09:57:19;;;;;;;7.30;2.40;;;;;;;;;;4995166;28;20420;-74
2023/02/24 10:00:23;;;;;;;6.10;1.83;;;;;;;;;;4978603;28;20472;-73
2023/02/24 10:03:18;;;;;;;3.73;1.63;;;;;;;;;;4976407;28;20433;-73
2023/02/24 10:06:10;;;;;;;6.90;2.13;;;;;;;;;;4979806;28;20421;-73
2023/02/24 10:08:37;;;;;;;14.00;5.03;;;;;;;;;;4977627;28;20529;-73
2023/02/24 10:11:06;;;;;;;11.77;2.90;;;;;;;;;;4979026;28;21039;-74
2023/02/24 10:13:35;;;;;;;18.33;4.07;;;;;;;;;;4978318;28;20450;-73
2023/02/24 10:16:04;;;;;;;22.83;5.00;;;;;;;;;;4978554;28;20433;-73
2023/02/24 10:18:59;;;;;;;17.03;4.53;;;;;;;;;;4977587;28;20886;-73
2023/02/24 10:21:59;;;;;;;20.60;3.37;;;;;;;;;;4965658;28;20495;-73
2023/02/24 10:24:36;;;;;;;33.03;5.00;;;;;;;;;;4994469;28;20440;-74
2023/02/24 10:27:08;;;;;;;24.13;4.70;;;;;;;;;;4995011;28;20427;-73
2023/02/24 10:29:42;;;;;;;24.33;4.70;;;;;;;;;;4978866;28;21017;-73
2023/02/24 10:32:30;;;;;;;32.67;5.40;;;;;;;;;;4992343;28;20504;-73
2023/02/24 10:34:56;;;;;;;26.87;4.90;;;;;;;;;;4980177;28;20496;-73
2023/02/24 10:37:24;;;;;;;24.33;5.07;;;;;;;;;;4983902;28;20531;-73
2023/02/24 10:39:49;;;;;;;31.87;6.73;;;;;;;;;;4979877;28;20203;-73
2023/02/24 10:42:23;;;;;;;22.90;4.63;;;;;;;;;;4983696;28;20839;-73
2023/02/24 10:44:52;;;;;;;22.20;4.77;;;;;;;;;;4983139;28;21078;-73
2023/02/24 10:47:19;;;;;;;29.37;5.00;;;;;;;;;;4979760;28;20441;-73
2023/02/24 10:49:56;;;;;;;28.23;4.30;;;;;;;;;;4985856;28;20461;-73
2023/02/24 10:55:27;;;;;;;23.77;4.90;;;;;;;;;;4985110;28;20421;-73
2023/02/24 10:58:04;;;;;;;21.13;4.10;;;;;;;;;;4980248;28;20425;-73
2023/02/24 11:00:59;;;;;;;26.57;5.70;;;;;;;;;;4983421;28;20417;-73
2023/02/24 11:03:40;;;;;;;26.07;4.60;;;;;;;;;;4984301;28;20428;-73
2023/02/24 11:06:29;;;;;;;20.47;4.30;;;;;;;;;;4982320;28;20775;-73
2023/02/24 11:17:20;;;;;;;9.87;3.57;;;;;;;;;;4982197;28;20936;-73
2023/02/24 11:20:11;;;;;;;9.63;1.60;;;;;;;;;;4984937;28;20488;-74
2023/02/24 11:22:38;;;;;;;8.30;1.80;;;;;;;;;;4982748;28;20515;-74
2023/02/24 11:25:17;;;;;;;10.40;1.70;;;;;;;;;;4997629;28;20413;-73
2023/02/24 11:27:42;;;;;;;8.90;1.77;;;;;;;;;;4981289;28;20433;-73
2023/02/24 11:30:15;;;;;;;11.73;2.43;;;;;;;;;;4981252;28;20464;-73
2023/02/24 11:32:44;;;;;;;7.90;2.00;;;;;;;;;;4979589;28;20573;-74
2023/02/24 11:35:19;;;;;;;12.70;2.77;;;;;;;;;;4982530;28;20724;-74
2023/02/24 11:37:46;;;;;;;18.43;3.93;;;;;;;;;;4993769;28;20508;-74
2023/02/24 11:40:25;;;;;;;23.27;4.60;;;;;;;;;;4980591;28;20527;-73
2023/02/24 11:42:52;;;;;;;25.77;5.20;;;;;;;;;;4978494;28;20440;-73
2023/02/24 11:45:36;;;;;;;12.23;2.80;;;;;;;;;;4982205;28;20910;-73
2023/02/24 11:48:04;;;;;;;10.23;2.10;;;;;;;;;;4983861;28;21026;-73
2023/02/24 11:50:35;;;;;;;11.03;2.90;;;;;;;;;;4979953;28;20856;-74
2023/02/24 11:53:02;;;;;;;9.97;2.20;;;;;;;;;;4980803;28;20425;-74
2023/02/24 11:55:38;;;;;;;11.67;2.50;;;;;;;;;;4980606;28;20495;-73
2023/02/24 11:58:26;;;;;;;8.23;2.13;;;;;;;;;;4992929;28;20985;-73
2023/02/24 12:00:56;;;;;;;7.87;2.03;;;;;;;;;;4981301;28;20417;-73
2023/02/24 12:03:26;;;;;;;14.00;2.60;;;;;;;;;;4996337;28;20417;-73
2023/02/24 12:05:55;;;;;;;12.53;2.80;;;;;;;;;;4978759;28;20429;-73
2023/02/24 12:08:27;;;;;;;11.77;2.60;;;;;;;;;;4980143;28;20452;-73
2023/02/24 12:10:59;;;;;;;19.63;3.70;;;;;;;;;;4995208;28;21051;-73
2023/02/24 12:13:37;;;;;;;14.03;4.00;;;;;;;;;;4985145;28;20416;-73
2023/02/24 12:16:11;;;;;;;21.07;3.53;;;;;;;;;;4978958;28;20418;-73
2023/02/24 12:18:42;;;;;;;10.80;3.30;;;;;;;;;;4974803;28;20425;-73
2023/02/24 12:21:08;;;;;;;24.10;3.87;;;;;;;;;;4983429;28;20429;-73
2023/02/24 12:23:34;;;;;;;18.03;3.73;;;;;;;;;;4974068;28;20430;-73
2023/02/24 12:26:00;;;;;;;15.67;3.63;;;;;;;;;;4979795;28;20439;-73
2023/02/24 12:28:26;;;;;;;16.13;3.30;;;;;;;;;;4991664;28;20256;-73
2023/02/24 12:30:56;;;;;;;10.50;2.80;;;;;;;;;;4977754;28;20458;-73
2023/02/24 12:33:38;;;;;;;13.13;2.43;;;;;;;;;;4979944;28;20254;-73
2023/02/24 12:36:18;;;;;;;10.23;2.77;;;;;;;;;;4978082;28;20439;-73
2023/02/24 12:38:46;;;;;;;8.67;1.70;;;;;;;;;;4993769;28;20453;-73
2023/02/24 12:41:18;;;;;;;9.07;1.80;;;;;;;;;;4994227;28;20504;-73
2023/02/24 12:43:44;;;;;;;6.87;1.57;;;;;;;;;;4978957;28;20414;-73
2023/02/24 12:46:15;;;;;;;4.93;1.40;;;;;;;;;;4978855;28;20413;-73
2023/02/24 12:48:55;;;;;;;7.53;1.50;;;;;;;;;;4975849;28;20530;-73
2023/02/24 12:51:26;;;;;;;6.50;1.47;;;;;;;;;;4979760;28;20467;-73
2023/02/24 12:54:05;;;;;;;7.97;1.90;;;;;;;;;;4978267;28;20429;-73
2023/02/24 12:56:37;;;;;;;7.70;1.53;;;;;;;;;;4979642;28;20442;-73
2023/02/24 12:59:05;;;;;;;8.27;1.70;;;;;;;;;;4970741;28;21147;-73
2023/02/24 13:01:50;;;;;;;8.47;2.00;;;;;;;;;;4983652;28;20503;-73
2023/02/24 13:04:15;;;;;;;6.50;1.53;;;;;;;;;;4990531;28;20939;-73
2023/02/24 13:06:52;;;;;;;8.20;2.00;;;;;;;;;;4978514;28;20464;-73
2023/02/24 13:09:18;;;;;;;8.80;1.23;;;;;;;;;;4979296;28;20761;-73
2023/02/24 13:12:01;;;;;;;4.87;1.50;;;;;;;;;;4979807;28;20418;-73
2023/02/24 13:14:27;;;;;;;5.67;1.60;;;;;;;;;;4977570;28;20548;-73
2023/02/24 13:17:07;;;;;;;8.00;1.67;;;;;;;;;;4994769;28;20413;-73
2023/02/24 13:19:33;;;;;;;7.93;1.57;;;;;;;;;;4979005;28;20193;-73
2023/02/24 13:22:04;;;;;;;13.87;2.03;;;;;;;;;;4977788;28;20494;-73
2023/02/24 13:24:29;;;;;;;11.07;1.70;;;;;;;;;;4978539;28;20182;-73
2023/02/24 13:27:14;;;;;;;9.33;1.53;;;;;;;;;;4978797;28;20496;-73
2023/02/24 13:29:55;;;;;;;14.37;1.73;;;;;;;;;;4976660;28;20271;-73
2023/02/24 13:32:27;;;;;;;9.53;2.50;;;;;;;;;;4979145;28;20402;-73
2023/02/24 13:34:53;;;;;;;8.87;1.77;;;;;;;;;;4993613;28;20418;-73
2023/02/24 13:37:26;;;;;;;9.27;2.00;;;;;;;;;;4979940;28;20890;-73
2023/02/24 13:39:51;;;;;;;9.40;2.50;;;;;;;;;;4981544;28;20198;-73
2023/02/24 13:42:21;;;;;;;10.17;1.90;;;;;;;;;;4983745;28;20424;-73
2023/02/24 13:45:00;;;;;;;7.57;2.30;;;;;;;;;;4980139;28;20196;-73
2023/02/24 13:47:29;;;;;;;8.80;1.87;;;;;;;;;;4981921;28;20432;-73
2023/02/24 13:50:09;;;;;;;15.23;1.77;;;;;;;;;;4983219;28;20505;-73
2023/02/24 13:52:40;;;;;;;9.30;2.30;;;;;;;;;;4980917;28;20456;-73
2023/02/24 13:55:24;;;;;;;11.30;2.10;;;;;;;;;;4981784;28;20414;-73
2023/02/24 13:58:02;;;;;;;7.30;2.00;;;;;;;;;;4980468;28;20417;-73
2023/02/24 14:00:27;;;;;;;8.87;2.13;;;;;;;;;;4980873;28;20443;-73
2023/02/24 14:02:53;;;;;;;8.93;2.23;;;;;;;;;;4982623;28;20413;-73
2023/02/24 14:05:30;;;;;;;17.97;2.90;;;;;;;;;;4982124;28;20186;-73
2023/02/24 14:07:56;;;;;;;8.90;2.00;;;;;;;;;;4979485;28;20461;-74
2023/02/24 14:10:24;;;;;;;12.30;2.47;;;;;;;;;;4983116;28;20471;-74
2023/02/24 14:12:54;;;;;;;14.03;2.40;;;;;;;;;;4982867;28;20678;-74
2023/02/24 14:15:22;;;;;;;8.40;2.30;;;;;;;;;;4982524;28;20539;-74
2023/02/24 14:17:54;;;;;;;7.23;1.80;;;;;;;;;;4980835;28;20447;-73
2023/02/24 14:20:20;;;;;;;12.67;1.87;;;;;;;;;;4986179;28;20426;-73
2023/02/24 14:22:47;;;;;;;7.60;1.60;;;;;;;;;;4984234;28;20437;-73
2023/02/24 14:25:14;;;;;;;8.67;2.00;;;;;;;;;;4985654;28;20527;-74
2023/02/24 14:27:42;;;;;;;7.90;2.03;;;;;;;;;;4983857;28;20433;-73
2023/02/24 14:30:19;;;;;;;6.33;1.80;;;;;;;;;;4982434;28;20479;-73
2023/02/24 14:32:46;;;;;;;10.77;2.10;;;;;;;;;;4985528;28;20425;-73
2023/02/24 14:35:19;;;;;;;10.90;2.10;;;;;;;;;;4983537;28;20959;-73
2023/02/24 14:37:44;;;;;;;8.70;1.97;;;;;;;;;;4988323;28;20925;-73
2023/02/24 14:40:13;;;;;;;7.00;1.80;;;;;;;;;;4986295;28;20418;-73
2023/02/24 14:42:45;;;;;;;6.10;1.93;;;;;;;;;;4985877;28;20182;-73
2023/02/24 14:45:40;;;;;;;11.50;2.30;;;;;;;;;;4984711;28;20448;-73
2023/02/24 14:48:19;;;;;;;11.50;2.30;;;;;;;;;;4973543;28;20972;-73
2023/02/24 14:50:45;;;;;;;14.37;3.27;;;;;;;;;;4984049;28;20468;-73
2023/02/24 14:53:13;;;;;;;9.80;2.27;;;;;;;;;;4984407;28;20820;-73
2023/02/24 14:55:40;;;;;;;11.23;2.30;;;;;;;;;;4986182;28;20178;-74
2023/02/24 14:58:06;;;;;;;15.27;3.80;;;;;;;;;;4998138;28;20452;-73
2023/02/24 15:00:33;;;;;;;15.90;2.70;;;;;;;;;;4985250;28;20898;-74
2023/02/24 15:03:14;;;;;;;13.13;3.03;;;;;;;;;;4988253;28;20301;-74
2023/02/24 15:05:43;;;;;;;13.37;2.40;;;;;;;;;;4983722;28;20515;-74
2023/02/24 15:08:15;;;;;;;12.47;2.47;;;;;;;;;;4981698;28;20469;-74
2023/02/24 15:10:44;;;;;;;11.43;2.73;;;;;;;;;;4998478;28;20466;-74
2023/02/24 15:13:14;;;;;;;10.40;2.60;;;;;;;;;;4974355;28;20910;-74